Sevier River near Sigurd




Date Battery Voltage (V) Panel Temperature (degC) River Stage (ft) River Discharge (cfs)
03/01/2018 13.16 1.49 1.92 117
03/02/2018 13.37 9.39 1.83 105
03/03/2018 13.24 10.33 1.88 111
03/04/2018 13.23 3.83 1.87 110
03/05/2018 13.47 1.50 1.78 98
03/06/2018 13.48 1.49 1.71 89
03/07/2018 13.38 4.77 1.72 89
03/08/2018 13.39 8.31 1.74 93
03/09/2018 13.37 10.68 1.76 94
03/10/2018 13.40 8.82 1.77 96
03/12/2018 13.33 12.33 1.74 93
03/13/2018 13.34 16.82 1.56 72
03/14/2018 13.20 11.29 1.58 73
03/15/2018 13.18 5.25 1.60 76
03/16/2018 13.35 7.70 1.62 78
03/17/2018 13.26 7.35 1.63 79
03/18/2018 13.25 3.49 1.64 80
03/19/2018 13.44 5.15 1.55 71
03/20/2018 13.44 7.45 1.35 51
03/21/2018 13.29 11.00 1.28 45
03/22/2018 13.06 14.13 1.30 46
03/23/2018 13.30 14.28 1.31 47
03/24/2018 13.36 9.25 1.33 49
03/25/2018 13.40 9.88 1.34 50
03/26/2018 13.55 4.59 1.31 47
03/27/2018 13.52 5.25 1.12 34
03/28/2018 13.44 10.23 0.99 25
03/29/2018 13.44 10.19 1.01 26
03/30/2018 13.40 12.29 1.06 29
03/31/2018 13.36 15.27 1.10 31
Average 70
Maximum 117
Minimum 25
Total Volume (AF) 4,172